Falls Creek, Australia
Current Conditions -  °F | °C
As of 5:00 AM on Thursday 29 Jan 2015 (Local Time) from YMAY Reporting Station
Clear Clear  
Wind Chill: 59°   Ceiling: Unl
Heat Index: 59°   Visibility: 6mi
Dew Point: 41°   Wind: 12mph
Humidity: 51%   Direction: 150°SSE
Pressure: 29.97"   Gusts: NA
Location:  36.87°S, 147.27°E
Report Text: YMAY 281800Z AUTO 15010KT 9999 // NCD 15/05 Q1015
Loading
Personal Weather Stations






























Interactive Weather Map New forecast layout! Learn more

10-Day Weather Forecast

Advertisements
Track Severe Weather on mobile